Airfield :
LOGIN :

Register | Disclaimer

   EN    FR    IT 

 










Legend :    VFR   Marginal VFR   IFR   Intensive IFR   Very Intensive IFR
Visi :
Ceiling :
>= 8 km
>= 3000ft
5 to 8 km
1000 to 3000 ft
1500m to 5 km
500 to 1000 ft
800 to 1500m
200 to 500 ft
< 800m
< 200 ft
Symbols :   Thunderstorms  Fog  Heavy snow  Heavy precipitations  Wind > 20 kt
SIGMETs :     Misc.  Thunderstorms  Icing  Turbulence  Mountain Waves  Volcanic Ashes







- Airport Elevation : 74 ft
- IATA code : MRS
- Download approach charts


LFML - Marseille / Marignane

CURRENT METAR :
  • 270000Z AUTO 31005KT CAVOK 25/18 Q1009 NOSIG

EXPIRED METARs :
  • 262330Z AUTO 32007KT CAVOK 25/18 Q1010 NOSIG
  • 262300Z AUTO 30007KT CAVOK 25/18 Q1010 NOSIG
  • 262230Z AUTO 29006KT CAVOK 25/18 Q1010 NOSIG
  • 262200Z AUTO 30005KT CAVOK 25/18 Q1010 NOSIG
  • 262130Z AUTO 05003KT CAVOK 25/17 Q1010 NOSIG

TAF TAF LFML
Valid from the 26 at 21:00 until the 28 at 03:00 UTC


262000Z 2621/2803 32006KT CAVOK
BECMG 2621/2624 VRB03KT
BECMG 2708/2710 26007KT
BECMG 2710/2712 18013KT
BECMG 2720/2723 VRB10KT SCT025TCU
PROB40
TEMPO 2722/2803 VRB15G25KT 4000 SHRA BKN020TCU TX31/2713Z TN21/2704Z
ATIS : +33 4 42 31 15 15
No reported NOTAMs for that airfield.
1 SIGMET reported for the Marseille FIR (LFMM) :
 
Embedded thunderstorms
LFMM SIGMET 6 VALID 262230/270130 LFPW
LFMM MARSEILLE FIR/UIR EMBD TS FCST WI N4630 E00645 - N4630 E00700 - N4500 E00700 - N4400 E00530 - N4445 E00400 TOP FL390 MOV NE 10KT WKN=



MET'MAP, your aeronautical weather chart ! - Copyright ORBIFLY December 2007 - Disclaimer

ORBIFLY MET'MAP TEAM :

Programming & Development : Alexandra Zaïnal
Concept & Development : Baudouin d'Aumeries
Co-Development & Prog : Marc-Olivier Méhu
Technical & hardware support : Manuel Goepfert

Contact : metmap@orbifly.com




SOURCES & CREDITS :

   NOAA